sensor_id;sensor_type;location;lat;lon;timestamp;P1;durP1;ratioP1;P2;durP2;ratioP2
42066;SDS011;27734;47.028;28.820;2023-07-31T00:00:10;9.60;;;4.77;;
42066;SDS011;27734;47.028;28.820;2023-07-31T00:03:02;6.27;;;4.40;;
42066;SDS011;27734;47.028;28.820;2023-07-31T00:05:34;6.17;;;4.40;;
42066;SDS011;27734;47.028;28.820;2023-07-31T00:08:05;7.90;;;4.50;;
42066;SDS011;27734;47.028;28.820;2023-07-31T00:10:36;7.35;;;4.40;;
42066;SDS011;27734;47.028;28.820;2023-07-31T00:13:07;8.93;;;4.33;;
42066;SDS011;27734;47.028;28.820;2023-07-31T00:15:39;5.80;;;4.00;;
42066;SDS011;27734;47.028;28.820;2023-07-31T00:18:10;6.27;;;4.37;;
42066;SDS011;27734;47.028;28.820;2023-07-31T00:20:42;20.17;;;6.23;;
42066;SDS011;27734;47.028;28.820;2023-07-31T00:23:13;10.47;;;4.87;;
42066;SDS011;27734;47.028;28.820;2023-07-31T00:25:45;12.17;;;4.97;;
42066;SDS011;27734;47.028;28.820;2023-07-31T00:28:16;10.53;;;5.30;;
42066;SDS011;27734;47.028;28.820;2023-07-31T00:30:47;14.73;;;5.20;;
42066;SDS011;27734;47.028;28.820;2023-07-31T00:33:18;7.10;;;4.93;;
42066;SDS011;27734;47.028;28.820;2023-07-31T00:35:50;9.10;;;5.47;;
42066;SDS011;27734;47.028;28.820;2023-07-31T00:38:21;9.13;;;4.90;;
42066;SDS011;27734;47.028;28.820;2023-07-31T00:40:52;13.37;;;5.80;;
42066;SDS011;27734;47.028;28.820;2023-07-31T00:43:24;11.07;;;5.77;;
42066;SDS011;27734;47.028;28.820;2023-07-31T00:45:55;9.70;;;5.47;;
42066;SDS011;27734;47.028;28.820;2023-07-31T00:48:27;10.37;;;5.87;;
42066;SDS011;27734;47.028;28.820;2023-07-31T00:50:58;14.13;;;6.37;;
42066;SDS011;27734;47.028;28.820;2023-07-31T00:53:30;11.57;;;5.70;;
42066;SDS011;27734;47.028;28.820;2023-07-31T00:56:02;8.93;;;5.67;;
42066;SDS011;27734;47.028;28.820;2023-07-31T00:58:35;9.30;;;5.72;;
42066;SDS011;27734;47.028;28.820;2023-07-31T01:01:06;10.40;;;5.83;;
42066;SDS011;27734;47.028;28.820;2023-07-31T01:03:37;11.03;;;5.87;;
42066;SDS011;27734;47.028;28.820;2023-07-31T01:06:12;8.50;;;5.47;;
42066;SDS011;27734;47.028;28.820;2023-07-31T01:08:51;9.60;;;5.77;;
42066;SDS011;27734;47.028;28.820;2023-07-31T01:11:29;10.87;;;5.90;;
42066;SDS011;27734;47.028;28.820;2023-07-31T01:14:04;12.43;;;6.00;;
42066;SDS011;27734;47.028;28.820;2023-07-31T01:16:35;11.20;;;6.03;;
42066;SDS011;27734;47.028;28.820;2023-07-31T01:19:07;10.10;;;5.73;;
42066;SDS011;27734;47.028;28.820;2023-07-31T01:21:51;10.33;;;5.90;;
42066;SDS011;27734;47.028;28.820;2023-07-31T01:24:39;8.80;;;5.97;;
42066;SDS011;27734;47.028;28.820;2023-07-31T01:27:20;10.80;;;5.60;;
42066;SDS011;27734;47.028;28.820;2023-07-31T01:29:55;9.13;;;5.87;;
42066;SDS011;27734;47.028;28.820;2023-07-31T01:32:29;10.90;;;5.93;;
42066;SDS011;27734;47.028;28.820;2023-07-31T01:35:01;10.60;;;6.00;;
42066;SDS011;27734;47.028;28.820;2023-07-31T01:37:33;9.40;;;5.90;;
42066;SDS011;27734;47.028;28.820;2023-07-31T01:40:06;8.67;;;5.40;;
42066;SDS011;27734;47.028;28.820;2023-07-31T01:42:38;9.35;;;6.00;;
42066;SDS011;27734;47.028;28.820;2023-07-31T01:45:11;10.00;;;5.60;;
42066;SDS011;27734;47.028;28.820;2023-07-31T01:47:43;9.33;;;5.97;;
42066;SDS011;27734;47.028;28.820;2023-07-31T01:50:14;8.87;;;5.53;;
42066;SDS011;27734;47.028;28.820;2023-07-31T01:52:46;16.13;;;7.00;;
42066;SDS011;27734;47.028;28.820;2023-07-31T01:55:17;12.00;;;6.57;;
42066;SDS011;27734;47.028;28.820;2023-07-31T01:57:48;11.17;;;6.63;;
42066;SDS011;27734;47.028;28.820;2023-07-31T02:00:20;14.07;;;6.57;;
42066;SDS011;27734;47.028;28.820;2023-07-31T02:02:51;13.73;;;6.60;;
42066;SDS011;27734;47.028;28.820;2023-07-31T02:05:23;12.37;;;6.40;;
42066;SDS011;27734;47.028;28.820;2023-07-31T02:07:54;10.07;;;6.20;;
42066;SDS011;27734;47.028;28.820;2023-07-31T02:10:29;11.25;;;5.75;;
42066;SDS011;27734;47.028;28.820;2023-07-31T02:13:01;21.73;;;7.63;;
42066;SDS011;27734;47.028;28.820;2023-07-31T02:15:32;13.40;;;6.80;;
42066;SDS011;27734;47.028;28.820;2023-07-31T02:18:04;12.13;;;6.47;;
42066;SDS011;27734;47.028;28.820;2023-07-31T02:20:35;11.27;;;5.93;;
42066;SDS011;27734;47.028;28.820;2023-07-31T02:23:07;14.60;;;6.87;;
42066;SDS011;27734;47.028;28.820;2023-07-31T02:25:38;13.07;;;6.83;;
42066;SDS011;27734;47.028;28.820;2023-07-31T02:28:09;15.43;;;6.90;;
42066;SDS011;27734;47.028;28.820;2023-07-31T02:30:43;12.33;;;6.47;;
42066;SDS011;27734;47.028;28.820;2023-07-31T02:33:15;10.13;;;6.00;;
42066;SDS011;27734;47.028;28.820;2023-07-31T02:35:48;11.50;;;6.28;;
42066;SDS011;27734;47.028;28.820;2023-07-31T02:38:19;14.67;;;6.63;;
42066;SDS011;27734;47.028;28.820;2023-07-31T02:40:51;10.37;;;6.20;;
42066;SDS011;27734;47.028;28.820;2023-07-31T02:43:22;14.63;;;6.70;;
42066;SDS011;27734;47.028;28.820;2023-07-31T02:45:53;12.90;;;7.00;;
42066;SDS011;27734;47.028;28.820;2023-07-31T02:48:25;16.00;;;6.97;;
42066;SDS011;27734;47.028;28.820;2023-07-31T02:50:57;13.57;;;7.10;;
42066;SDS011;27734;47.028;28.820;2023-07-31T02:53:28;13.70;;;7.33;;
42066;SDS011;27734;47.028;28.820;2023-07-31T02:55:59;14.67;;;6.87;;
42066;SDS011;27734;47.028;28.820;2023-07-31T02:58:30;11.23;;;6.80;;
42066;SDS011;27734;47.028;28.820;2023-07-31T03:01:02;11.93;;;7.07;;
42066;SDS011;27734;47.028;28.820;2023-07-31T03:03:33;13.37;;;7.67;;
42066;SDS011;27734;47.028;28.820;2023-07-31T03:06:05;13.60;;;6.80;;
42066;SDS011;27734;47.028;28.820;2023-07-31T03:08:36;14.77;;;7.33;;
42066;SDS011;27734;47.028;28.820;2023-07-31T03:11:07;13.30;;;6.97;;
42066;SDS011;27734;47.028;28.820;2023-07-31T03:13:39;11.93;;;7.00;;
42066;SDS011;27734;47.028;28.820;2023-07-31T03:16:10;13.77;;;7.20;;
42066;SDS011;27734;47.028;28.820;2023-07-31T03:18:41;13.20;;;8.03;;
42066;SDS011;27734;47.028;28.820;2023-07-31T03:21:14;14.97;;;8.10;;
42066;SDS011;27734;47.028;28.820;2023-07-31T03:23:45;16.97;;;8.90;;
42066;SDS011;27734;47.028;28.820;2023-07-31T03:26:16;15.53;;;8.73;;
42066;SDS011;27734;47.028;28.820;2023-07-31T03:28:47;12.45;;;7.90;;
42066;SDS011;27734;47.028;28.820;2023-07-31T03:31:19;13.37;;;8.73;;
42066;SDS011;27734;47.028;28.820;2023-07-31T03:33:50;12.20;;;7.37;;
42066;SDS011;27734;47.028;28.820;2023-07-31T03:36:22;15.10;;;7.93;;
42066;SDS011;27734;47.028;28.820;2023-07-31T03:38:53;10.07;;;6.77;;
42066;SDS011;27734;47.028;28.820;2023-07-31T03:41:25;11.60;;;6.33;;
42066;SDS011;27734;47.028;28.820;2023-07-31T03:43:56;16.00;;;7.27;;
42066;SDS011;27734;47.028;28.820;2023-07-31T03:46:27;15.07;;;7.53;;
42066;SDS011;27734;47.028;28.820;2023-07-31T03:48:58;11.03;;;6.73;;
42066;SDS011;27734;47.028;28.820;2023-07-31T03:51:30;11.90;;;6.80;;
42066;SDS011;27734;47.028;28.820;2023-07-31T03:54:01;12.80;;;6.67;;
42066;SDS011;27734;47.028;28.820;2023-07-31T03:56:32;11.63;;;6.70;;
42066;SDS011;27734;47.028;28.820;2023-07-31T03:59:03;10.07;;;6.37;;
42066;SDS011;27734;47.028;28.820;2023-07-31T04:01:35;9.43;;;6.00;;
42066;SDS011;27734;47.028;28.820;2023-07-31T04:04:06;10.77;;;6.90;;
42066;SDS011;27734;47.028;28.820;2023-07-31T04:06:38;15.53;;;6.77;;
42066;SDS011;27734;47.028;28.820;2023-07-31T04:09:09;11.33;;;6.60;;
42066;SDS011;27734;47.028;28.820;2023-07-31T04:11:40;10.83;;;6.60;;
42066;SDS011;27734;47.028;28.820;2023-07-31T04:14:11;10.07;;;5.87;;
42066;SDS011;27734;47.028;28.820;2023-07-31T04:16:43;11.40;;;6.43;;
42066;SDS011;27734;47.028;28.820;2023-07-31T04:19:14;13.00;;;6.47;;
42066;SDS011;27734;47.028;28.820;2023-07-31T04:21:45;11.60;;;7.07;;
42066;SDS011;27734;47.028;28.820;2023-07-31T04:24:16;11.80;;;7.07;;
42066;SDS011;27734;47.028;28.820;2023-07-31T04:26:52;11.43;;;6.70;;
42066;SDS011;27734;47.028;28.820;2023-07-31T04:29:24;10.90;;;6.65;;
42066;SDS011;27734;47.028;28.820;2023-07-31T04:31:55;10.60;;;6.83;;
42066;SDS011;27734;47.028;28.820;2023-07-31T04:34:26;12.37;;;7.20;;
42066;SDS011;27734;47.028;28.820;2023-07-31T04:36:57;12.47;;;7.13;;
42066;SDS011;27734;47.028;28.820;2023-07-31T04:39:29;12.33;;;7.07;;
42066;SDS011;27734;47.028;28.820;2023-07-31T04:42:00;12.47;;;7.03;;
42066;SDS011;27734;47.028;28.820;2023-07-31T04:44:31;12.20;;;7.10;;
42066;SDS011;27734;47.028;28.820;2023-07-31T04:47:03;10.27;;;6.13;;
42066;SDS011;27734;47.028;28.820;2023-07-31T04:49:34;12.30;;;6.33;;
42066;SDS011;27734;47.028;28.820;2023-07-31T04:52:06;11.40;;;6.50;;
42066;SDS011;27734;47.028;28.820;2023-07-31T04:54:37;12.93;;;7.43;;
42066;SDS011;27734;47.028;28.820;2023-07-31T04:57:08;11.33;;;7.20;;
42066;SDS011;27734;47.028;28.820;2023-07-31T04:59:40;11.60;;;6.70;;
42066;SDS011;27734;47.028;28.820;2023-07-31T05:02:14;10.57;;;6.73;;
42066;SDS011;27734;47.028;28.820;2023-07-31T05:04:46;13.83;;;7.10;;
42066;SDS011;27734;47.028;28.820;2023-07-31T05:07:17;10.37;;;6.83;;
42066;SDS011;27734;47.028;28.820;2023-07-31T05:09:51;14.53;;;7.00;;
42066;SDS011;27734;47.028;28.820;2023-07-31T05:12:22;12.50;;;6.60;;
42066;SDS011;27734;47.028;28.820;2023-07-31T05:14:55;11.03;;;6.87;;
42066;SDS011;27734;47.028;28.820;2023-07-31T05:17:26;12.70;;;6.37;;
42066;SDS011;27734;47.028;28.820;2023-07-31T05:20:10;13.80;;;6.63;;
42066;SDS011;27734;47.028;28.820;2023-07-31T05:22:44;10.50;;;5.97;;
42066;SDS011;27734;47.028;28.820;2023-07-31T05:25:19;11.78;;;6.35;;
42066;SDS011;27734;47.028;28.820;2023-07-31T05:27:58;11.80;;;6.33;;
42066;SDS011;27734;47.028;28.820;2023-07-31T05:30:35;13.43;;;7.30;;
42066;SDS011;27734;47.028;28.820;2023-07-31T05:33:07;10.97;;;6.30;;
42066;SDS011;27734;47.028;28.820;2023-07-31T05:38:47;10.00;;;6.25;;
42066;SDS011;27734;47.028;28.820;2023-07-31T05:41:37;7.97;;;5.80;;
42066;SDS011;27734;47.028;28.820;2023-07-31T05:44:14;7.70;;;5.67;;
42066;SDS011;27734;47.028;28.820;2023-07-31T05:52:48;9.37;;;5.90;;
42066;SDS011;27734;47.028;28.820;2023-07-31T05:55:22;9.80;;;5.90;;
42066;SDS011;27734;47.028;28.820;2023-07-31T05:57:57;10.50;;;6.10;;
42066;SDS011;27734;47.028;28.820;2023-07-31T06:00:33;8.27;;;5.80;;
42066;SDS011;27734;47.028;28.820;2023-07-31T06:03:06;9.13;;;5.65;;
42066;SDS011;27734;47.028;28.820;2023-07-31T06:05:45;9.30;;;6.10;;
42066;SDS011;27734;47.028;28.820;2023-07-31T06:08:31;14.27;;;6.17;;
42066;SDS011;27734;47.028;28.820;2023-07-31T06:11:06;10.97;;;6.27;;
42066;SDS011;27734;47.028;28.820;2023-07-31T06:13:39;10.15;;;6.05;;
42066;SDS011;27734;47.028;28.820;2023-07-31T06:16:21;8.07;;;6.07;;
42066;SDS011;27734;47.028;28.820;2023-07-31T06:21:47;9.50;;;6.27;;
42066;SDS011;27734;47.028;28.820;2023-07-31T06:24:22;9.67;;;6.20;;
42066;SDS011;27734;47.028;28.820;2023-07-31T06:27:02;10.18;;;6.00;;
42066;SDS011;27734;47.028;28.820;2023-07-31T06:29:36;11.60;;;6.80;;
42066;SDS011;27734;47.028;28.820;2023-07-31T06:32:10;10.23;;;6.62;;
42066;SDS011;27734;47.028;28.820;2023-07-31T06:35:10;16.27;;;6.70;;
42066;SDS011;27734;47.028;28.820;2023-07-31T06:38:06;10.90;;;6.80;;
42066;SDS011;27734;47.028;28.820;2023-07-31T06:40:45;11.40;;;6.27;;
42066;SDS011;27734;47.028;28.820;2023-07-31T06:43:52;12.67;;;7.23;;
42066;SDS011;27734;47.028;28.820;2023-07-31T06:46:24;16.87;;;7.50;;
42066;SDS011;27734;47.028;28.820;2023-07-31T06:49:01;16.43;;;8.30;;
42066;SDS011;27734;47.028;28.820;2023-07-31T06:51:35;12.60;;;6.27;;
42066;SDS011;27734;47.028;28.820;2023-07-31T06:54:11;10.23;;;6.23;;
42066;SDS011;27734;47.028;28.820;2023-07-31T06:56:48;14.40;;;5.27;;
42066;SDS011;27734;47.028;28.820;2023-07-31T06:59:21;8.27;;;5.20;;
42066;SDS011;27734;47.028;28.820;2023-07-31T07:04:53;9.90;;;5.67;;
42066;SDS011;27734;47.028;28.820;2023-07-31T07:07:39;12.97;;;5.57;;
42066;SDS011;27734;47.028;28.820;2023-07-31T07:10:13;9.40;;;5.77;;
42066;SDS011;27734;47.028;28.820;2023-07-31T07:12:54;10.80;;;5.28;;
42066;SDS011;27734;47.028;28.820;2023-07-31T07:15:30;10.57;;;5.47;;
42066;SDS011;27734;47.028;28.820;2023-07-31T07:18:10;10.50;;;5.97;;
42066;SDS011;27734;47.028;28.820;2023-07-31T07:27:28;12.33;;;5.97;;
42066;SDS011;27734;47.028;28.820;2023-07-31T07:30:00;12.60;;;5.80;;
42066;SDS011;27734;47.028;28.820;2023-07-31T07:32:41;12.67;;;6.27;;
42066;SDS011;27734;47.028;28.820;2023-07-31T07:35:20;10.50;;;6.07;;
42066;SDS011;27734;47.028;28.820;2023-07-31T07:37:54;14.83;;;6.77;;
42066;SDS011;27734;47.028;28.820;2023-07-31T07:40:45;12.50;;;5.80;;
42066;SDS011;27734;47.028;28.820;2023-07-31T07:43:29;12.93;;;6.00;;
42066;SDS011;27734;47.028;28.820;2023-07-31T07:46:22;10.47;;;5.90;;
42066;SDS011;27734;47.028;28.820;2023-07-31T07:48:59;11.80;;;5.43;;
42066;SDS011;27734;47.028;28.820;2023-07-31T07:51:36;9.67;;;5.07;;
42066;SDS011;27734;47.028;28.820;2023-07-31T07:54:11;9.67;;;5.17;;
42066;SDS011;27734;47.028;28.820;2023-07-31T07:56:43;10.53;;;5.25;;
42066;SDS011;27734;47.028;28.820;2023-07-31T07:59:15;11.20;;;5.40;;
42066;SDS011;27734;47.028;28.820;2023-07-31T08:01:46;10.83;;;4.90;;
42066;SDS011;27734;47.028;28.820;2023-07-31T08:04:22;13.67;;;5.60;;
42066;SDS011;27734;47.028;28.820;2023-07-31T08:06:53;12.50;;;5.30;;
42066;SDS011;27734;47.028;28.820;2023-07-31T08:09:25;10.87;;;5.10;;
42066;SDS011;27734;47.028;28.820;2023-07-31T08:11:57;9.40;;;5.07;;
42066;SDS011;27734;47.028;28.820;2023-07-31T08:14:31;14.17;;;5.77;;
42066;SDS011;27734;47.028;28.820;2023-07-31T08:17:06;15.48;;;5.72;;
42066;SDS011;27734;47.028;28.820;2023-07-31T08:19:44;13.73;;;5.40;;
42066;SDS011;27734;47.028;28.820;2023-07-31T08:22:18;11.97;;;5.83;;
42066;SDS011;27734;47.028;28.820;2023-07-31T08:24:51;13.70;;;5.60;;
42066;SDS011;27734;47.028;28.820;2023-07-31T08:27:26;13.30;;;5.77;;
42066;SDS011;27734;47.028;28.820;2023-07-31T08:30:00;11.37;;;6.03;;
42066;SDS011;27734;47.028;28.820;2023-07-31T08:32:40;12.70;;;5.85;;
42066;SDS011;27734;47.028;28.820;2023-07-31T08:35:14;14.87;;;6.17;;
42066;SDS011;27734;47.028;28.820;2023-07-31T08:38:09;8.93;;;5.60;;
42066;SDS011;27734;47.028;28.820;2023-07-31T08:40:41;12.53;;;5.77;;
42066;SDS011;27734;47.028;28.820;2023-07-31T08:43:20;13.87;;;5.87;;
42066;SDS011;27734;47.028;28.820;2023-07-31T08:45:54;11.87;;;5.77;;
42066;SDS011;27734;47.028;28.820;2023-07-31T08:48:28;10.97;;;5.93;;
42066;SDS011;27734;47.028;28.820;2023-07-31T08:51:03;12.50;;;6.07;;
42066;SDS011;27734;47.028;28.820;2023-07-31T08:53:35;13.30;;;6.10;;
42066;SDS011;27734;47.028;28.820;2023-07-31T08:56:13;10.30;;;5.83;;
42066;SDS011;27734;47.028;28.820;2023-07-31T09:01:16;12.33;;;5.90;;
42066;SDS011;27734;47.028;28.820;2023-07-31T09:03:50;13.70;;;6.63;;
42066;SDS011;27734;47.028;28.820;2023-07-31T09:06:24;10.20;;;6.13;;
42066;SDS011;27734;47.028;28.820;2023-07-31T09:08:58;12.93;;;6.27;;
42066;SDS011;27734;47.028;28.820;2023-07-31T09:11:33;12.63;;;5.83;;
42066;SDS011;27734;47.028;28.820;2023-07-31T09:14:05;12.27;;;5.90;;
42066;SDS011;27734;47.028;28.820;2023-07-31T09:16:38;10.50;;;5.90;;
42066;SDS011;27734;47.028;28.820;2023-07-31T09:19:27;18.83;;;6.70;;
42066;SDS011;27734;47.028;28.820;2023-07-31T09:22:02;13.50;;;6.57;;
42066;SDS011;27734;47.028;28.820;2023-07-31T09:24:34;15.10;;;7.00;;
42066;SDS011;27734;47.028;28.820;2023-07-31T09:27:06;11.00;;;6.33;;
42066;SDS011;27734;47.028;28.820;2023-07-31T09:29:38;10.47;;;6.20;;
42066;SDS011;27734;47.028;28.820;2023-07-31T09:32:18;12.90;;;6.00;;
42066;SDS011;27734;47.028;28.820;2023-07-31T09:35:02;11.37;;;5.70;;
42066;SDS011;27734;47.028;28.820;2023-07-31T09:37:52;9.20;;;6.00;;
42066;SDS011;27734;47.028;28.820;2023-07-31T09:40:30;6.83;;;5.20;;
42066;SDS011;27734;47.028;28.820;2023-07-31T09:43:08;9.13;;;5.60;;
42066;SDS011;27734;47.028;28.820;2023-07-31T09:45:47;8.20;;;5.30;;
42066;SDS011;27734;47.028;28.820;2023-07-31T09:48:24;9.97;;;5.90;;
42066;SDS011;27734;47.028;28.820;2023-07-31T09:51:00;9.67;;;5.60;;
42066;SDS011;27734;47.028;28.820;2023-07-31T09:53:36;9.60;;;5.87;;
42066;SDS011;27734;47.028;28.820;2023-07-31T09:56:08;7.60;;;5.30;;
42066;SDS011;27734;47.028;28.820;2023-07-31T09:58:40;11.33;;;5.60;;
42066;SDS011;27734;47.028;28.820;2023-07-31T10:01:14;10.07;;;6.27;;
42066;SDS011;27734;47.028;28.820;2023-07-31T10:03:49;9.80;;;5.90;;
42066;SDS011;27734;47.028;28.820;2023-07-31T10:06:23;9.93;;;5.47;;
42066;SDS011;27734;47.028;28.820;2023-07-31T10:08:58;9.00;;;5.87;;
42066;SDS011;27734;47.028;28.820;2023-07-31T10:11:36;10.60;;;6.10;;
42066;SDS011;27734;47.028;28.820;2023-07-31T10:14:20;9.37;;;6.00;;
42066;SDS011;27734;47.028;28.820;2023-07-31T10:16:57;10.80;;;6.60;;
42066;SDS011;27734;47.028;28.820;2023-07-31T10:22:14;8.53;;;5.53;;
42066;SDS011;27734;47.028;28.820;2023-07-31T10:24:53;8.37;;;5.40;;
42066;SDS011;27734;47.028;28.820;2023-07-31T10:27:28;8.67;;;5.90;;
42066;SDS011;27734;47.028;28.820;2023-07-31T10:30:04;9.93;;;6.23;;
42066;SDS011;27734;47.028;28.820;2023-07-31T10:32:44;8.70;;;5.50;;
42066;SDS011;27734;47.028;28.820;2023-07-31T10:35:20;7.60;;;4.83;;
42066;SDS011;27734;47.028;28.820;2023-07-31T10:37:55;7.30;;;4.83;;
42066;SDS011;27734;47.028;28.820;2023-07-31T10:40:46;7.80;;;4.87;;
42066;SDS011;27734;47.028;28.820;2023-07-31T10:46:16;7.33;;;4.47;;
42066;SDS011;27734;47.028;28.820;2023-07-31T10:51:33;7.00;;;4.80;;
42066;SDS011;27734;47.028;28.820;2023-07-31T10:54:18;7.27;;;4.63;;
42066;SDS011;27734;47.028;28.820;2023-07-31T10:56:55;6.80;;;4.90;;
42066;SDS011;27734;47.028;28.820;2023-07-31T10:59:35;7.47;;;4.50;;
42066;SDS011;27734;47.028;28.820;2023-07-31T11:02:15;8.67;;;4.73;;
42066;SDS011;27734;47.028;28.820;2023-07-31T11:05:13;7.97;;;4.60;;
42066;SDS011;27734;47.028;28.820;2023-07-31T11:08:12;7.73;;;4.90;;
42066;SDS011;27734;47.028;28.820;2023-07-31T11:10:47;7.30;;;4.80;;
42066;SDS011;27734;47.028;28.820;2023-07-31T11:13:33;8.80;;;4.47;;
42066;SDS011;27734;47.028;28.820;2023-07-31T11:16:23;5.70;;;4.43;;
42066;SDS011;27734;47.028;28.820;2023-07-31T11:19:03;7.50;;;4.33;;
42066;SDS011;27734;47.028;28.820;2023-07-31T11:21:51;8.00;;;4.60;;
42066;SDS011;27734;47.028;28.820;2023-07-31T11:24:54;9.47;;;4.63;;
42066;SDS011;27734;47.028;28.820;2023-07-31T11:37:41;9.03;;;4.80;;
42066;SDS011;27734;47.028;28.820;2023-07-31T11:40:19;8.57;;;4.67;;
42066;SDS011;27734;47.028;28.820;2023-07-31T11:43:04;9.57;;;4.63;;
42066;SDS011;27734;47.028;28.820;2023-07-31T11:45:54;6.50;;;4.55;;
42066;SDS011;27734;47.028;28.820;2023-07-31T11:48:37;6.23;;;4.30;;
42066;SDS011;27734;47.028;28.820;2023-07-31T11:51:20;6.83;;;4.50;;
42066;SDS011;27734;47.028;28.820;2023-07-31T11:54:03;6.77;;;4.80;;
42066;SDS011;27734;47.028;28.820;2023-07-31T11:56:44;5.70;;;4.30;;
42066;SDS011;27734;47.028;28.820;2023-07-31T11:59:29;7.63;;;4.00;;
42066;SDS011;27734;47.028;28.820;2023-07-31T12:02:25;8.33;;;5.00;;
42066;SDS011;27734;47.028;28.820;2023-07-31T12:05:01;6.73;;;4.47;;
42066;SDS011;27734;47.028;28.820;2023-07-31T12:08:05;5.22;;;4.30;;
42066;SDS011;27734;47.028;28.820;2023-07-31T12:10:42;8.60;;;4.60;;
42066;SDS011;27734;47.028;28.820;2023-07-31T12:13:30;7.47;;;4.63;;
42066;SDS011;27734;47.028;28.820;2023-07-31T12:16:13;6.00;;;4.20;;
42066;SDS011;27734;47.028;28.820;2023-07-31T12:18:53;9.30;;;4.30;;
42066;SDS011;27734;47.028;28.820;2023-07-31T12:21:31;6.93;;;4.00;;
42066;SDS011;27734;47.028;28.820;2023-07-31T12:24:08;6.20;;;3.80;;
42066;SDS011;27734;47.028;28.820;2023-07-31T12:26:51;3.97;;;3.27;;
42066;SDS011;27734;47.028;28.820;2023-07-31T12:29:41;7.87;;;3.67;;
42066;SDS011;27734;47.028;28.820;2023-07-31T12:32:21;5.63;;;3.53;;
42066;SDS011;27734;47.028;28.820;2023-07-31T12:35:03;5.90;;;3.33;;
42066;SDS011;27734;47.028;28.820;2023-07-31T12:37:59;6.87;;;4.20;;
42066;SDS011;27734;47.028;28.820;2023-07-31T12:40:50;6.93;;;3.80;;
42066;SDS011;27734;47.028;28.820;2023-07-31T12:43:40;12.07;;;5.80;;
42066;SDS011;27734;47.028;28.820;2023-07-31T12:46:42;5.17;;;3.60;;
42066;SDS011;27734;47.028;28.820;2023-07-31T12:49:21;6.80;;;3.50;;
42066;SDS011;27734;47.028;28.820;2023-07-31T12:51:52;6.70;;;3.70;;
42066;SDS011;27734;47.028;28.820;2023-07-31T12:54:39;6.37;;;3.63;;
42066;SDS011;27734;47.028;28.820;2023-07-31T12:57:18;4.90;;;3.57;;
42066;SDS011;27734;47.028;28.820;2023-07-31T12:59:59;6.80;;;3.90;;
42066;SDS011;27734;47.028;28.820;2023-07-31T13:02:50;5.93;;;3.67;;
42066;SDS011;27734;47.028;28.820;2023-07-31T13:05:43;4.07;;;3.40;;
42066;SDS011;27734;47.028;28.820;2023-07-31T13:08:26;4.70;;;3.50;;
42066;SDS011;27734;47.028;28.820;2023-07-31T13:11:00;4.93;;;3.23;;
42066;SDS011;27734;47.028;28.820;2023-07-31T13:13:36;4.60;;;3.40;;
42066;SDS011;27734;47.028;28.820;2023-07-31T13:16:16;5.80;;;2.80;;
42066;SDS011;27734;47.028;28.820;2023-07-31T13:19:06;3.67;;;2.70;;
42066;SDS011;27734;47.028;28.820;2023-07-31T13:21:41;3.67;;;2.90;;
42066;SDS011;27734;47.028;28.820;2023-07-31T13:24:19;4.80;;;3.10;;
42066;SDS011;27734;47.028;28.820;2023-07-31T13:26:56;3.03;;;2.77;;
42066;SDS011;27734;47.028;28.820;2023-07-31T13:29:38;6.57;;;2.87;;
42066;SDS011;27734;47.028;28.820;2023-07-31T13:32:16;4.13;;;3.10;;
42066;SDS011;27734;47.028;28.820;2023-07-31T13:34:53;6.50;;;3.47;;
42066;SDS011;27734;47.028;28.820;2023-07-31T13:37:28;5.33;;;3.40;;
42066;SDS011;27734;47.028;28.820;2023-07-31T13:40:04;8.43;;;3.33;;
42066;SDS011;27734;47.028;28.820;2023-07-31T13:42:48;7.87;;;3.47;;
42066;SDS011;27734;47.028;28.820;2023-07-31T13:45:28;4.57;;;3.40;;
42066;SDS011;27734;47.028;28.820;2023-07-31T13:48:05;6.80;;;3.47;;
42066;SDS011;27734;47.028;28.820;2023-07-31T13:50:38;6.80;;;3.87;;
42066;SDS011;27734;47.028;28.820;2023-07-31T13:53:20;6.20;;;3.20;;
42066;SDS011;27734;47.028;28.820;2023-07-31T13:55:57;5.60;;;3.23;;
42066;SDS011;27734;47.028;28.820;2023-07-31T13:58:52;6.30;;;3.35;;
42066;SDS011;27734;47.028;28.820;2023-07-31T14:01:31;4.03;;;3.22;;
42066;SDS011;27734;47.028;28.820;2023-07-31T14:04:04;5.42;;;3.10;;
42066;SDS011;27734;47.028;28.820;2023-07-31T14:06:38;6.20;;;3.30;;
42066;SDS011;27734;47.028;28.820;2023-07-31T14:09:13;4.37;;;3.13;;
42066;SDS011;27734;47.028;28.820;2023-07-31T14:11:45;5.53;;;3.50;;
42066;SDS011;27734;47.028;28.820;2023-07-31T14:14:18;3.57;;;3.10;;
42066;SDS011;27734;47.028;28.820;2023-07-31T14:16:51;5.12;;;3.40;;
42066;SDS011;27734;47.028;28.820;2023-07-31T14:19:23;5.17;;;3.37;;
42066;SDS011;27734;47.028;28.820;2023-07-31T14:24:28;5.90;;;3.67;;
42066;SDS011;27734;47.028;28.820;2023-07-31T14:27:03;6.17;;;3.90;;
42066;SDS011;27734;47.028;28.820;2023-07-31T14:32:09;4.37;;;3.40;;
42066;SDS011;27734;47.028;28.820;2023-07-31T14:34:40;8.27;;;3.40;;
42066;SDS011;27734;47.028;28.820;2023-07-31T14:37:12;5.90;;;3.10;;
42066;SDS011;27734;47.028;28.820;2023-07-31T14:39:44;6.47;;;3.20;;
42066;SDS011;27734;47.028;28.820;2023-07-31T14:42:17;2.97;;;2.70;;
42066;SDS011;27734;47.028;28.820;2023-07-31T14:44:52;4.20;;;3.20;;
42066;SDS011;27734;47.028;28.820;2023-07-31T14:47:23;5.80;;;3.40;;
42066;SDS011;27734;47.028;28.820;2023-07-31T14:49:55;5.53;;;3.20;;
42066;SDS011;27734;47.028;28.820;2023-07-31T14:52:27;4.50;;;3.15;;
42066;SDS011;27734;47.028;28.820;2023-07-31T14:55:00;5.58;;;3.08;;
42066;SDS011;27734;47.028;28.820;2023-07-31T14:57:33;4.13;;;3.00;;
42066;SDS011;27734;47.028;28.820;2023-07-31T15:00:06;4.50;;;3.40;;
42066;SDS011;27734;47.028;28.820;2023-07-31T15:02:38;4.73;;;3.27;;
42066;SDS011;27734;47.028;28.820;2023-07-31T15:05:10;6.93;;;3.10;;
42066;SDS011;27734;47.028;28.820;2023-07-31T15:07:42;4.50;;;3.10;;
42066;SDS011;27734;47.028;28.820;2023-07-31T15:10:13;4.73;;;3.23;;
42066;SDS011;27734;47.028;28.820;2023-07-31T15:12:44;3.57;;;3.20;;
42066;SDS011;27734;47.028;28.820;2023-07-31T15:15:16;4.10;;;3.05;;
42066;SDS011;27734;47.028;28.820;2023-07-31T15:17:47;3.20;;;2.90;;
42066;SDS011;27734;47.028;28.820;2023-07-31T15:20:18;3.30;;;3.00;;
42066;SDS011;27734;47.028;28.820;2023-07-31T15:22:52;8.20;;;3.58;;
42066;SDS011;27734;47.028;28.820;2023-07-31T15:25:23;3.50;;;3.13;;
42066;SDS011;27734;47.028;28.820;2023-07-31T15:27:54;4.13;;;3.30;;
42066;SDS011;27734;47.028;28.820;2023-07-31T15:30:25;5.43;;;3.40;;
42066;SDS011;27734;47.028;28.820;2023-07-31T15:32:58;6.00;;;3.50;;
42066;SDS011;27734;47.028;28.820;2023-07-31T15:35:30;4.23;;;3.40;;
42066;SDS011;27734;47.028;28.820;2023-07-31T15:38:02;5.77;;;3.23;;
42066;SDS011;27734;47.028;28.820;2023-07-31T15:40:33;6.07;;;3.50;;
42066;SDS011;27734;47.028;28.820;2023-07-31T15:43:04;5.10;;;3.60;;
42066;SDS011;27734;47.028;28.820;2023-07-31T15:45:35;3.47;;;3.17;;
42066;SDS011;27734;47.028;28.820;2023-07-31T15:48:07;3.30;;;3.00;;
42066;SDS011;27734;47.028;28.820;2023-07-31T15:50:38;5.10;;;3.60;;
42066;SDS011;27734;47.028;28.820;2023-07-31T15:53:09;4.77;;;3.37;;
42066;SDS011;27734;47.028;28.820;2023-07-31T15:55:41;6.43;;;3.50;;
42066;SDS011;27734;47.028;28.820;2023-07-31T15:58:12;6.23;;;3.60;;
42066;SDS011;27734;47.028;28.820;2023-07-31T16:00:43;3.90;;;3.50;;
42066;SDS011;27734;47.028;28.820;2023-07-31T16:03:15;4.63;;;3.37;;
42066;SDS011;27734;47.028;28.820;2023-07-31T16:05:47;4.50;;;3.53;;